Mostonga I — YT-2185 — position and weather

sailwx.info

Track history (hours):
 
Tides and Currents Weather Stations Pressure Air Temp Water Temp Dewpoint Dewpoint Depression Visibility Wind Speed Wind Dir Waves Ship Positions

Mostonga I

Last reported at 2018-Apr-27 12:52 UTC. Time now 2018-Jul-22 18:16 UTC.
Position N 44°52' E 020°22'.
Warning: this ship's position is months out of date.

Length 70 m; draft 0.7 m.

Type: Cargo ship. MMSI: 279202185.

Date/timePositionNaut miles runAvg speedWind from/ knotsBaromVisibWave heightAir tempDewpointWater temp
2018-Apr-27 12:52N 44°52' E 020°22'0 0.0
2018-Apr-27 12:30N 44°52' E 020°22'0 0.0
2018-Apr-27 12:00N 44°52' E 020°22'0 0.0
2018-Apr-27 11:30N 44°52' E 020°22'0 0.0
2018-Apr-27 11:00N 44°52' E 020°22'0 0.0
2018-Apr-27 10:30N 44°52' E 020°22'0 0.0
2018-Apr-27 10:00N 44°52' E 020°22'0 0.0
2018-Apr-27 09:30N 44°52' E 020°22'2 3.3
2018-Apr-27 09:01N 44°54' E 020°21'23 1.4
2018-Apr-26 16:02N 45°11' E 019°59'0 5.5
2018-Apr-26 16:00N 45°11' E 019°59'3 5.5
2018-Apr-26 15:30N 45°13' E 019°56'3 5.4
2018-Apr-26 15:01N 45°15' E 019°54'  
2018-Apr-24 05:29N 45°17' E 019°49'0 0.7
2018-Apr-24 05:01N 45°17' E 019°49'0 0.2
2018-Apr-24 04:31N 45°17' E 019°49'0 0.0
2018-Apr-24 04:01N 45°17' E 019°49'0 0.0
2018-Apr-24 03:31N 45°17' E 019°49'0 0.0
2018-Apr-24 03:01N 45°17' E 019°49'0 0.0
2018-Apr-24 02:31N 45°17' E 019°49'0 0.0
2018-Apr-24 01:52N 45°17' E 019°49'0 0.0
2018-Apr-24 01:31N 45°17' E 019°49'0 0.0
2018-Apr-24 01:01N 45°17' E 019°49'0 0.0
2018-Apr-24 00:31N 45°17' E 019°49'0 0.0
2018-Apr-24 00:01N 45°17' E 019°49'0 0.0
2018-Apr-23 23:31N 45°17' E 019°49'0 0.0
2018-Apr-23 23:01N 45°17' E 019°49'0 0.0
2018-Apr-23 22:31N 45°17' E 019°49'0 0.0
2018-Apr-23 22:01N 45°17' E 019°49'0 0.0
2018-Apr-23 21:31N 45°17' E 019°49'0 0.0
2018-Apr-23 21:01N 45°17' E 019°49'0 0.0
2018-Apr-23 20:31N 45°17' E 019°49'0 0.0
2018-Apr-23 20:01N 45°17' E 019°49'0 0.0
2018-Apr-23 19:31N 45°17' E 019°49'0 0.0
2018-Apr-23 19:01N 45°17' E 019°49'0 0.0
2018-Apr-23 18:31N 45°17' E 019°49'1 1.9
2018-Apr-23 18:01N 45°17' E 019°50'2 3.0
2018-Apr-23 17:31N 45°16' E 019°52'1 1.7
2018-Apr-23 17:01N 45°16' E 019°53'1 1.9
2018-Apr-23 16:31N 45°15' E 019°54'1 2.0
2018-Apr-23 16:01N 45°14' E 019°55'1 2.2
2018-Apr-23 15:30N 45°13' E 019°56'1 2.0
2018-Apr-23 15:00N 45°12' E 019°57'1 2.2
2018-Apr-23 14:30N 45°12' E 019°58'1 2.0
2018-Apr-23 14:01N 45°11' E 019°59'1 1.9
2018-Apr-23 13:31N 45°11' E 020°00'1 2.4
2018-Apr-23 13:01N 45°10' E 020°02'1 1.9
2018-Apr-23 12:30N 45°10' E 020°03'1 2.0
2018-Apr-23 12:00N 45°10' E 020°05'1 1.8
2018-Apr-23 11:30N 45°10' E 020°06'1 2.0
2018-Apr-23 11:00N 45°10' E 020°07'1 1.7
2018-Apr-23 10:31N 45°11' E 020°08'1 2.3
2018-Apr-23 10:00N 45°11' E 020°10'1 2.1
2018-Apr-23 09:31N 45°11' E 020°11'1 2.2
2018-Apr-23 09:00N 45°10' E 020°13'1 2.3
2018-Apr-23 08:30N 45°10' E 020°14'1 2.3
2018-Apr-23 07:57N 45°09' E 020°15'1 2.3
2018-Apr-23 07:26N 45°08' E 020°16'1 1.9
2018-Apr-23 06:59N 45°07' E 020°17'1 1.8
2018-Apr-23 06:30N 45°06' E 020°18'1 1.8
2018-Apr-23 06:00N 45°06' E 020°18'1 1.8
2018-Apr-23 05:30N 45°05' E 020°19'1 1.8
2018-Apr-23 05:00N 45°04' E 020°20'0 0.4
2018-Apr-23 04:28N 45°04' E 020°20'0 0.0
2018-Apr-23 03:25N 45°04' E 020°20'0 0.0
2018-Apr-23 02:47N 45°04' E 020°20'0 0.0
2018-Apr-23 02:24N 45°04' E 020°20'0 0.0
2018-Apr-23 00:57N 45°04' E 020°20'0 0.1
2018-Apr-22 19:13N 45°04' E 020°20'0 2.1
2018-Apr-22 19:01N 45°04' E 020°21'1 2.1
2018-Apr-22 18:31N 45°03' E 020°22'1 2.5
2018-Apr-22 18:00N 45°01' E 020°22'1 2.1
2018-Apr-22 17:31N 45°01' E 020°22'1 2.1
2018-Apr-22 17:00N 45°00' E 020°20'1 2.2
2018-Apr-22 16:31N 44°60' E 020°19'1 2.3
2018-Apr-22 16:00N 44°59' E 020°18'1 2.1
2018-Apr-22 15:30N 44°58' E 020°17'1 2.5
2018-Apr-22 15:01N 44°57' E 020°18'1 2.3
2018-Apr-22 14:31N 44°56' E 020°19'1 2.2
2018-Apr-22 14:00N 44°55' E 020°20'1 2.2
2018-Apr-22 13:30N 44°54' E 020°21'1 2.5
2018-Apr-22 13:01N 44°53' E 020°22'1 2.1
2018-Apr-22 12:30N 44°52' E 020°23'1 2.0
2018-Apr-22 12:00N 44°52' E 020°24'1 2.2
2018-Apr-22 11:30N 44°51' E 020°25'1 2.4
2018-Apr-22 11:00N 44°50' E 020°27'1 2.1
2018-Apr-22 10:30N 44°50' E 020°28'1 1.7
2018-Apr-22 10:00N 44°50' E 020°29'1 2.0
2018-Apr-22 09:30N 44°49' E 020°30'0 0.0
2018-Apr-22 09:00N 44°49' E 020°30'1 1.8
2018-Apr-22 08:30N 44°50' E 020°32'1 2.2
2018-Apr-22 08:00N 44°50' E 020°33'1 2.1
2018-Apr-22 07:30N 44°51' E 020°34'1 2.2
2018-Apr-22 07:00N 44°51' E 020°36'1 2.2
2018-Apr-22 06:30N 44°51' E 020°37'1 2.3
2018-Apr-22 06:00N 44°50' E 020°38'1 1.9
2018-Apr-22 05:30N 44°49' E 020°39'1 2.1
2018-Apr-22 05:00N 44°48' E 020°38'1 1.9
2018-Apr-22 04:29N 44°47' E 020°38'0 0.1
2018-Apr-22 04:00N 44°47' E 020°38'0 0.0
2018-Apr-22 03:31N 44°47' E 020°38'0 0.0
2018-Apr-22 03:01N 44°47' E 020°38'0 0.0
2018-Apr-22 02:30N 44°47' E 020°38'0 0.0
2018-Apr-22 02:01N 44°47' E 020°38'0 0.0
2018-Apr-22 01:30N 44°47' E 020°38'0 0.0
2018-Apr-22 01:01N 44°47' E 020°38'0 0.0
2018-Apr-22 00:30N 44°47' E 020°38'0 0.0
2018-Apr-22 00:00N 44°47' E 020°38'0 0.0
2018-Apr-21 23:29N 44°47' E 020°38'0 0.0
2018-Apr-21 23:00N 44°47' E 020°38'0 0.0
2018-Apr-21 22:30N 44°47' E 020°38'0 0.0
2018-Apr-21 22:00N 44°47' E 020°38'0 0.0
2018-Apr-21 21:30N 44°47' E 020°38'0 0.0
2018-Apr-21 21:00N 44°47' E 020°38'0 0.0
2018-Apr-21 20:30N 44°47' E 020°38'0 0.0
2018-Apr-21 20:00N 44°47' E 020°38'0 0.0
2018-Apr-21 19:30N 44°47' E 020°38'0 0.0
2018-Apr-21 19:00N 44°47' E 020°38'0 0.0
2018-Apr-21 18:30N 44°47' E 020°38'1 1.1
2018-Apr-21 18:00N 44°47' E 020°38'1 2.2
2018-Apr-21 17:30N 44°46' E 020°38'1 1.9
2018-Apr-21 17:00N 44°45' E 020°39'1 1.9
2018-Apr-21 16:30N 44°44' E 020°40'1 2.0
2018-Apr-21 16:00N 44°44' E 020°41'1 1.9
2018-Apr-21 15:31N 44°43' E 020°41'1 1.8
2018-Apr-21 15:01N 44°42' E 020°42'1 2.2
2018-Apr-21 14:30N 44°41' E 020°43'1 2.1
2018-Apr-21 14:00N 44°41' E 020°44'9 1.9
2018-Apr-21 09:15N 44°42' E 020°57'0 2.0
2018-Apr-21 09:00N 44°42' E 020°58'1 1.9
2018-Apr-21 08:30N 44°42' E 020°59'1 1.9
2018-Apr-21 07:59N 44°43' E 020°60'1 2.1
2018-Apr-21 07:29N 44°43' E 021°01'1 2.2
2018-Apr-21 06:59N 44°43' E 021°03'3 0.3
2018-Apr-20 20:42N 44°45' E 021°06'0 0.0
2018-Apr-20 20:29N 44°45' E 021°06'0 0.0
2018-Apr-20 20:00N 44°45' E 021°06'0 0.0
2018-Apr-20 19:24N 44°45' E 021°06'0 0.0
2018-Apr-20 19:00N 44°45' E 021°06'0 0.0
2018-Apr-20 18:30N 44°45' E 021°06'0 0.0
2018-Apr-20 18:00N 44°45' E 021°06'0 0.0
2018-Apr-20 17:28N 44°45' E 021°06'0 0.0
2018-Apr-20 15:46N 44°45' E 021°06'0 0.0
2018-Apr-20 15:03N 44°45' E 021°06'0 0.0
2018-Apr-20 15:00N 44°45' E 021°06'0 0.0
2018-Apr-20 14:22N 44°45' E 021°06'0 0.0
2018-Apr-20 14:01N 44°45' E 021°06'0 0.0
2018-Apr-20 13:31N 44°45' E 021°06'0 0.0
2018-Apr-20 13:01N 44°45' E 021°06'0 0.0
2018-Apr-20 12:31N 44°45' E 021°06'0 0.0
2018-Apr-20 12:00N 44°45' E 021°06'0 0.0
2018-Apr-20 11:30N 44°45' E 021°06'0 0.3
2018-Apr-20 11:01N 44°44' E 021°06'0 0.0
2018-Apr-20 10:30N 44°44' E 021°06'0 0.0
2018-Apr-20 10:01N 44°44' E 021°06'3 0.2
2018-Apr-19 20:15N 44°45' E 021°10'0 0.0
2018-Apr-19 20:00N 44°45' E 021°10'0 0.0
2018-Apr-19 19:31N 44°45' E 021°10'0 0.0
2018-Apr-19 19:00N 44°45' E 021°10'0 0.0
2018-Apr-19 18:31N 44°45' E 021°10'0 0.0
2018-Apr-19 18:01N 44°45' E 021°10'0 0.0
2018-Apr-19 17:31N 44°45' E 021°10'0 0.0
2018-Apr-19 17:00N 44°45' E 021°10'0 0.0
2018-Apr-19 16:31N 44°45' E 021°10'0 0.0
2018-Apr-19 16:00N 44°45' E 021°10'1 1.7
2018-Apr-19 15:30N 44°45' E 021°09'3 6.7
2018-Apr-19 15:01N 44°43' E 021°05'3 6.2
2018-Apr-19 14:31N 44°43' E 021°01'3 6.1
2018-Apr-19 14:01N 44°42' E 020°57'1 1.7
2018-Apr-19 13:31N 44°41' E 020°56'0 0.0
2018-Apr-19 13:00N 44°41' E 020°56'0 0.0
2018-Apr-19 12:30N 44°41' E 020°56'0 0.1
2018-Apr-19 12:01N 44°41' E 020°56'2 4.5
2018-Apr-19 11:31N 44°40' E 020°54'3 6.5
2018-Apr-19 11:00N 44°39' E 020°49'5 6.3
2018-Apr-19 10:12N 44°42' E 020°43'3 6.4
2018-Apr-19 09:45N 44°44' E 020°40'2 6.6
2018-Apr-19 09:30N 44°45' E 020°38'3 6.0
2018-Apr-19 09:00N 44°48' E 020°38'3 5.7
2018-Apr-19 08:30N 44°51' E 020°38'3 5.6
2018-Apr-19 08:00N 44°51' E 020°34'3 6.0
2018-Apr-19 07:30N 44°50' E 020°30'3 6.1
2018-Apr-19 07:00N 44°50' E 020°26'3 6.1
2018-Apr-19 06:31N 44°52' E 020°23'3 5.8
2018-Apr-19 06:01N 44°54' E 020°20'3 6.3
2018-Apr-19 05:30N 44°57' E 020°18'3 5.4
2018-Apr-19 05:00N 44°60' E 020°18'0 0.2
2018-Apr-19 04:30N 44°60' E 020°18'0 0.0
2018-Apr-19 03:57N 44°60' E 020°18'0 0.0
2018-Apr-19 03:27N 44°60' E 020°18'0 0.0
2018-Apr-19 03:00N 44°60' E 020°18'0 0.0
2018-Apr-19 02:28N 44°60' E 020°18'0 0.0
2018-Apr-19 02:01N 44°60' E 020°18'0 0.0
2018-Apr-19 01:30N 44°60' E 020°18'0 0.0
2018-Apr-19 00:59N 44°60' E 020°18'0 0.0
2018-Apr-19 00:29N 44°60' E 020°18'0 0.0
2018-Apr-19 00:00N 44°60' E 020°18'0 0.0
2018-Apr-18 23:30N 44°60' E 020°18'0 0.0
2018-Apr-18 23:00N 44°60' E 020°18'0 0.0
2018-Apr-18 22:29N 44°60' E 020°18'0 0.0
2018-Apr-18 21:59N 44°60' E 020°18'0 0.0
2018-Apr-18 21:30N 44°60' E 020°18'0 0.0
2018-Apr-18 21:00N 44°60' E 020°18'0 0.0
2018-Apr-18 20:30N 44°60' E 020°18'0 0.0
2018-Apr-18 19:59N 44°60' E 020°18'0 0.0
2018-Apr-18 19:30N 44°60' E 020°18'0 0.0
2018-Apr-18 19:00N 44°60' E 020°18'0 0.0
2018-Apr-18 18:30N 44°60' E 020°18'0 0.0
2018-Apr-18 18:00N 44°60' E 020°18'0 0.0
2018-Apr-18 17:30N 44°60' E 020°18'2 4.3
2018-Apr-18 17:00N 45°00' E 020°21'3 5.4
2018-Apr-18 16:30N 45°03' E 020°21'3 6.2
2018-Apr-18 15:59N 45°06' E 020°19'3 6.0
2018-Apr-18 15:30N 45°08' E 020°17'3 5.5
2018-Apr-18 15:00N 45°10' E 020°14'3 5.4
2018-Apr-18 14:31N 45°11' E 020°10'3 5.6
2018-Apr-18 14:00N 45°10' E 020°06'3 5.6
2018-Apr-18 13:30N 45°10' E 020°02'3 5.6
2018-Apr-18 13:00N 45°11' E 019°58'3 5.6
2018-Apr-18 12:31N 45°13' E 019°56'3 5.5
2018-Apr-18 12:00N 45°15' E 019°54'3 5.1
2018-Apr-18 11:30N 45°17' E 019°51'1 2.4
2018-Apr-18 11:01N 45°17' E 019°49'  
Track history (hours):
 
Tides and Currents Weather Stations Pressure Air Temp Water Temp Dewpoint Dewpoint Depression Visibility Wind Speed Wind Dir Waves Ship Positions

Mostonga I

Last reported at 2018-Apr-27 12:52 UTC. Time now 2018-Jul-22 18:16 UTC.
Position N 44°52' E 020°22'.
Warning: this ship's position is months out of date.

Length 70 m; draft 0.7 m.

Type: Cargo ship. MMSI: 279202185.

Date/timePositionNaut miles runAvg speedWind from/ knotsBaromVisibWave heightAir tempDewpointWater temp
2018-Apr-27 12:52N 44°52' E 020°22'0 0.0
2018-Apr-27 12:30N 44°52' E 020°22'0 0.0
2018-Apr-27 12:00N 44°52' E 020°22'0 0.0
2018-Apr-27 11:30N 44°52' E 020°22'0 0.0
2018-Apr-27 11:00N 44°52' E 020°22'0 0.0
2018-Apr-27 10:30N 44°52' E 020°22'0 0.0
2018-Apr-27 10:00N 44°52' E 020°22'0 0.0
2018-Apr-27 09:30N 44°52' E 020°22'2 3.3
2018-Apr-27 09:01N 44°54' E 020°21'23 1.4
2018-Apr-26 16:02N 45°11' E 019°59'0 5.5
2018-Apr-26 16:00N 45°11' E 019°59'3 5.5
2018-Apr-26 15:30N 45°13' E 019°56'3 5.4
2018-Apr-26 15:01N 45°15' E 019°54'  
2018-Apr-24 05:29N 45°17' E 019°49'0 0.7
2018-Apr-24 05:01N 45°17' E 019°49'0 0.2
2018-Apr-24 04:31N 45°17' E 019°49'0 0.0
2018-Apr-24 04:01N 45°17' E 019°49'0 0.0
2018-Apr-24 03:31N 45°17' E 019°49'0 0.0
2018-Apr-24 03:01N 45°17' E 019°49'0 0.0
2018-Apr-24 02:31N 45°17' E 019°49'0 0.0
2018-Apr-24 01:52N 45°17' E 019°49'0 0.0
2018-Apr-24 01:31N 45°17' E 019°49'0 0.0
2018-Apr-24 01:01N 45°17' E 019°49'0 0.0
2018-Apr-24 00:31N 45°17' E 019°49'0 0.0
2018-Apr-24 00:01N 45°17' E 019°49'0 0.0
2018-Apr-23 23:31N 45°17' E 019°49'0 0.0
2018-Apr-23 23:01N 45°17' E 019°49'0 0.0
2018-Apr-23 22:31N 45°17' E 019°49'0 0.0
2018-Apr-23 22:01N 45°17' E 019°49'0 0.0
2018-Apr-23 21:31N 45°17' E 019°49'0 0.0
2018-Apr-23 21:01N 45°17' E 019°49'0 0.0
2018-Apr-23 20:31N 45°17' E 019°49'0 0.0
2018-Apr-23 20:01N 45°17' E 019°49'0 0.0
2018-Apr-23 19:31N 45°17' E 019°49'0 0.0
2018-Apr-23 19:01N 45°17' E 019°49'0 0.0
2018-Apr-23 18:31N 45°17' E 019°49'1 1.9
2018-Apr-23 18:01N 45°17' E 019°50'2 3.0
2018-Apr-23 17:31N 45°16' E 019°52'1 1.7
2018-Apr-23 17:01N 45°16' E 019°53'1 1.9
2018-Apr-23 16:31N 45°15' E 019°54'1 2.0
2018-Apr-23 16:01N 45°14' E 019°55'1 2.2
2018-Apr-23 15:30N 45°13' E 019°56'1 2.0
2018-Apr-23 15:00N 45°12' E 019°57'1 2.2
2018-Apr-23 14:30N 45°12' E 019°58'1 2.0
2018-Apr-23 14:01N 45°11' E 019°59'1 1.9
2018-Apr-23 13:31N 45°11' E 020°00'1 2.4
2018-Apr-23 13:01N 45°10' E 020°02'1 1.9
2018-Apr-23 12:30N 45°10' E 020°03'1 2.0
2018-Apr-23 12:00N 45°10' E 020°05'1 1.8
2018-Apr-23 11:30N 45°10' E 020°06'1 2.0
2018-Apr-23 11:00N 45°10' E 020°07'1 1.7
2018-Apr-23 10:31N 45°11' E 020°08'1 2.3
2018-Apr-23 10:00N 45°11' E 020°10'1 2.1
2018-Apr-23 09:31N 45°11' E 020°11'1 2.2
2018-Apr-23 09:00N 45°10' E 020°13'1 2.3
2018-Apr-23 08:30N 45°10' E 020°14'1 2.3
2018-Apr-23 07:57N 45°09' E 020°15'1 2.3
2018-Apr-23 07:26N 45°08' E 020°16'1 1.9
2018-Apr-23 06:59N 45°07' E 020°17'1 1.8
2018-Apr-23 06:30N 45°06' E 020°18'1 1.8
2018-Apr-23 06:00N 45°06' E 020°18'1 1.8
2018-Apr-23 05:30N 45°05' E 020°19'1 1.8
2018-Apr-23 05:00N 45°04' E 020°20'0 0.4
2018-Apr-23 04:28N 45°04' E 020°20'0 0.0
2018-Apr-23 03:25N 45°04' E 020°20'0 0.0
2018-Apr-23 02:47N 45°04' E 020°20'0 0.0
2018-Apr-23 02:24N 45°04' E 020°20'0 0.0
2018-Apr-23 00:57N 45°04' E 020°20'0 0.1
2018-Apr-22 19:13N 45°04' E 020°20'0 2.1
2018-Apr-22 19:01N 45°04' E 020°21'1 2.1
2018-Apr-22 18:31N 45°03' E 020°22'1 2.5
2018-Apr-22 18:00N 45°01' E 020°22'1 2.1
2018-Apr-22 17:31N 45°01' E 020°22'1 2.1
2018-Apr-22 17:00N 45°00' E 020°20'1 2.2
2018-Apr-22 16:31N 44°60' E 020°19'1 2.3
2018-Apr-22 16:00N 44°59' E 020°18'1 2.1
2018-Apr-22 15:30N 44°58' E 020°17'1 2.5
2018-Apr-22 15:01N 44°57' E 020°18'1 2.3
2018-Apr-22 14:31N 44°56' E 020°19'1 2.2
2018-Apr-22 14:00N 44°55' E 020°20'1 2.2
2018-Apr-22 13:30N 44°54' E 020°21'1 2.5
2018-Apr-22 13:01N 44°53' E 020°22'1 2.1
2018-Apr-22 12:30N 44°52' E 020°23'1 2.0
2018-Apr-22 12:00N 44°52' E 020°24'1 2.2
2018-Apr-22 11:30N 44°51' E 020°25'1 2.4
2018-Apr-22 11:00N 44°50' E 020°27'1 2.1
2018-Apr-22 10:30N 44°50' E 020°28'1 1.7
2018-Apr-22 10:00N 44°50' E 020°29'1 2.0
2018-Apr-22 09:30N 44°49' E 020°30'0 0.0
2018-Apr-22 09:00N 44°49' E 020°30'1 1.8
2018-Apr-22 08:30N 44°50' E 020°32'1 2.2
2018-Apr-22 08:00N 44°50' E 020°33'1 2.1
2018-Apr-22 07:30N 44°51' E 020°34'1 2.2
2018-Apr-22 07:00N 44°51' E 020°36'1 2.2
2018-Apr-22 06:30N 44°51' E 020°37'1 2.3
2018-Apr-22 06:00N 44°50' E 020°38'1 1.9
2018-Apr-22 05:30N 44°49' E 020°39'1 2.1
2018-Apr-22 05:00N 44°48' E 020°38'1 1.9
2018-Apr-22 04:29N 44°47' E 020°38'0 0.1
2018-Apr-22 04:00N 44°47' E 020°38'0 0.0
2018-Apr-22 03:31N 44°47' E 020°38'0 0.0
2018-Apr-22 03:01N 44°47' E 020°38'0 0.0
2018-Apr-22 02:30N 44°47' E 020°38'0 0.0
2018-Apr-22 02:01N 44°47' E 020°38'0 0.0
2018-Apr-22 01:30N 44°47' E 020°38'0 0.0
2018-Apr-22 01:01N 44°47' E 020°38'0 0.0
2018-Apr-22 00:30N 44°47' E 020°38'0 0.0
2018-Apr-22 00:00N 44°47' E 020°38'0 0.0
2018-Apr-21 23:29N 44°47' E 020°38'0 0.0
2018-Apr-21 23:00N 44°47' E 020°38'0 0.0
2018-Apr-21 22:30N 44°47' E 020°38'0 0.0
2018-Apr-21 22:00N 44°47' E 020°38'0 0.0
2018-Apr-21 21:30N 44°47' E 020°38'0 0.0
2018-Apr-21 21:00N 44°47' E 020°38'0 0.0
2018-Apr-21 20:30N 44°47' E 020°38'0 0.0
2018-Apr-21 20:00N 44°47' E 020°38'0 0.0
2018-Apr-21 19:30N 44°47' E 020°38'0 0.0
2018-Apr-21 19:00N 44°47' E 020°38'0 0.0
2018-Apr-21 18:30N 44°47' E 020°38'1 1.1
2018-Apr-21 18:00N 44°47' E 020°38'1 2.2
2018-Apr-21 17:30N 44°46' E 020°38'1 1.9
2018-Apr-21 17:00N 44°45' E 020°39'1 1.9
2018-Apr-21 16:30N 44°44' E 020°40'1 2.0
2018-Apr-21 16:00N 44°44' E 020°41'1 1.9
2018-Apr-21 15:31N 44°43' E 020°41'1 1.8
2018-Apr-21 15:01N 44°42' E 020°42'1 2.2
2018-Apr-21 14:30N 44°41' E 020°43'1 2.1
2018-Apr-21 14:00N 44°41' E 020°44'9 1.9
2018-Apr-21 09:15N 44°42' E 020°57'0 2.0
2018-Apr-21 09:00N 44°42' E 020°58'1 1.9
2018-Apr-21 08:30N 44°42' E 020°59'1 1.9
2018-Apr-21 07:59N 44°43' E 020°60'1 2.1
2018-Apr-21 07:29N 44°43' E 021°01'1 2.2
2018-Apr-21 06:59N 44°43' E 021°03'3 0.3
2018-Apr-20 20:42N 44°45' E 021°06'0 0.0
2018-Apr-20 20:29N 44°45' E 021°06'0 0.0
2018-Apr-20 20:00N 44°45' E 021°06'0 0.0
2018-Apr-20 19:24N 44°45' E 021°06'0 0.0
2018-Apr-20 19:00N 44°45' E 021°06'0 0.0
2018-Apr-20 18:30N 44°45' E 021°06'0 0.0
2018-Apr-20 18:00N 44°45' E 021°06'0 0.0
2018-Apr-20 17:28N 44°45' E 021°06'0 0.0
2018-Apr-20 15:46N 44°45' E 021°06'0 0.0
2018-Apr-20 15:03N 44°45' E 021°06'0 0.0
2018-Apr-20 15:00N 44°45' E 021°06'0 0.0
2018-Apr-20 14:22N 44°45' E 021°06'0 0.0
2018-Apr-20 14:01N 44°45' E 021°06'0 0.0
2018-Apr-20 13:31N 44°45' E 021°06'0 0.0
2018-Apr-20 13:01N 44°45' E 021°06'0 0.0
2018-Apr-20 12:31N 44°45' E 021°06'0 0.0
2018-Apr-20 12:00N 44°45' E 021°06'0 0.0
2018-Apr-20 11:30N 44°45' E 021°06'0 0.3
2018-Apr-20 11:01N 44°44' E 021°06'0 0.0
2018-Apr-20 10:30N 44°44' E 021°06'0 0.0
2018-Apr-20 10:01N 44°44' E 021°06'3 0.2
2018-Apr-19 20:15N 44°45' E 021°10'0 0.0
2018-Apr-19 20:00N 44°45' E 021°10'0 0.0
2018-Apr-19 19:31N 44°45' E 021°10'0 0.0
2018-Apr-19 19:00N 44°45' E 021°10'0 0.0
2018-Apr-19 18:31N 44°45' E 021°10'0 0.0
2018-Apr-19 18:01N 44°45' E 021°10'0 0.0
2018-Apr-19 17:31N 44°45' E 021°10'0 0.0
2018-Apr-19 17:00N 44°45' E 021°10'0 0.0
2018-Apr-19 16:31N 44°45' E 021°10'0 0.0
2018-Apr-19 16:00N 44°45' E 021°10'1 1.7
2018-Apr-19 15:30N 44°45' E 021°09'3 6.7
2018-Apr-19 15:01N 44°43' E 021°05'3 6.2
2018-Apr-19 14:31N 44°43' E 021°01'3 6.1
2018-Apr-19 14:01N 44°42' E 020°57'1 1.7
2018-Apr-19 13:31N 44°41' E 020°56'0 0.0
2018-Apr-19 13:00N 44°41' E 020°56'0 0.0
2018-Apr-19 12:30N 44°41' E 020°56'0 0.1
2018-Apr-19 12:01N 44°41' E 020°56'2 4.5
2018-Apr-19 11:31N 44°40' E 020°54'3 6.5
2018-Apr-19 11:00N 44°39' E 020°49'5 6.3
2018-Apr-19 10:12N 44°42' E 020°43'3 6.4
2018-Apr-19 09:45N 44°44' E 020°40'2 6.6
2018-Apr-19 09:30N 44°45' E 020°38'3 6.0
2018-Apr-19 09:00N 44°48' E 020°38'3 5.7
2018-Apr-19 08:30N 44°51' E 020°38'3 5.6
2018-Apr-19 08:00N 44°51' E 020°34'3 6.0
2018-Apr-19 07:30N 44°50' E 020°30'3 6.1
2018-Apr-19 07:00N 44°50' E 020°26'3 6.1
2018-Apr-19 06:31N 44°52' E 020°23'3 5.8
2018-Apr-19 06:01N 44°54' E 020°20'3 6.3
2018-Apr-19 05:30N 44°57' E 020°18'3 5.4
2018-Apr-19 05:00N 44°60' E 020°18'0 0.2
2018-Apr-19 04:30N 44°60' E 020°18'0 0.0
2018-Apr-19 03:57N 44°60' E 020°18'0 0.0
2018-Apr-19 03:27N 44°60' E 020°18'0 0.0
2018-Apr-19 03:00N 44°60' E 020°18'0 0.0
2018-Apr-19 02:28N 44°60' E 020°18'0 0.0
2018-Apr-19 02:01N 44°60' E 020°18'0 0.0
2018-Apr-19 01:30N 44°60' E 020°18'0 0.0
2018-Apr-19 00:59N 44°60' E 020°18'0 0.0
2018-Apr-19 00:29N 44°60' E 020°18'0 0.0
2018-Apr-19 00:00N 44°60' E 020°18'0 0.0
2018-Apr-18 23:30N 44°60' E 020°18'0 0.0
2018-Apr-18 23:00N 44°60' E 020°18'0 0.0
2018-Apr-18 22:29N 44°60' E 020°18'0 0.0
2018-Apr-18 21:59N 44°60' E 020°18'0 0.0
2018-Apr-18 21:30N 44°60' E 020°18'0 0.0
2018-Apr-18 21:00N 44°60' E 020°18'0 0.0
2018-Apr-18 20:30N 44°60' E 020°18'0 0.0
2018-Apr-18 19:59N 44°60' E 020°18'0 0.0
2018-Apr-18 19:30N 44°60' E 020°18'0 0.0
2018-Apr-18 19:00N 44°60' E 020°18'0 0.0
2018-Apr-18 18:30N 44°60' E 020°18'0 0.0
2018-Apr-18 18:00N 44°60' E 020°18'0 0.0
2018-Apr-18 17:30N 44°60' E 020°18'2 4.3
2018-Apr-18 17:00N 45°00' E 020°21'3 5.4
2018-Apr-18 16:30N 45°03' E 020°21'3 6.2
2018-Apr-18 15:59N 45°06' E 020°19'3 6.0
2018-Apr-18 15:30N 45°08' E 020°17'3 5.5
2018-Apr-18 15:00N 45°10' E 020°14'3 5.4
2018-Apr-18 14:31N 45°11' E 020°10'3 5.6
2018-Apr-18 14:00N 45°10' E 020°06'3 5.6
2018-Apr-18 13:30N 45°10' E 020°02'3 5.6
2018-Apr-18 13:00N 45°11' E 019°58'3 5.6
2018-Apr-18 12:31N 45°13' E 019°56'3 5.5
2018-Apr-18 12:00N 45°15' E 019°54'3 5.1
2018-Apr-18 11:30N 45°17' E 019°51'1 2.4
2018-Apr-18 11:01N 45°17' E 019°49'  

Dump ship's entire track history